createdAt,value
2022-10-18T00:02:26.280Z,75.84
2022-10-18T00:04:52.719Z,75.27
2022-10-18T00:07:19.161Z,75.66
2022-10-18T00:09:45.653Z,75.72
2022-10-18T00:12:12.154Z,75.71
2022-10-18T00:14:38.570Z,76.05
2022-10-18T00:17:05.018Z,75.91
2022-10-18T00:19:31.524Z,75.67
2022-10-18T00:21:57.965Z,75.91
2022-10-18T00:24:24.406Z,75.82
2022-10-18T00:26:50.831Z,75.68
2022-10-18T00:29:17.379Z,76.10
2022-10-18T00:31:44.371Z,75.97
2022-10-18T00:34:15.956Z,75.73
2022-10-18T00:36:43.482Z,75.69
2022-10-18T00:39:15.695Z,76.12
2022-10-18T00:41:42.251Z,75.98
2022-10-18T00:44:11.575Z,76.39
2022-10-18T00:46:40.929Z,76.65
2022-10-18T00:49:25.060Z,76.71
2022-10-18T00:52:30.511Z,76.64
2022-10-18T00:54:58.055Z,77.17
2022-10-18T00:57:25.745Z,76.68
2022-10-18T00:59:53.564Z,76.44
2022-10-18T01:02:20.483Z,76.81
2022-10-18T01:04:47.893Z,76.91
2022-10-18T01:07:26.218Z,77.01
2022-10-18T01:10:11.433Z,77.23
2022-10-18T01:12:50.650Z,77.28
2022-10-18T01:15:23.944Z,77.05
2022-10-18T01:18:00.274Z,77.19
2022-10-18T01:24:38.890Z,76.92
2022-10-18T01:27:29.448Z,77.18
2022-10-18T01:30:19.680Z,77.47
2022-10-18T01:32:54.254Z,77.47
2022-10-18T01:35:29.756Z,77.54
2022-10-18T01:37:59.741Z,77.43
2022-10-18T01:40:27.311Z,77.60
2022-10-18T01:42:54.406Z,77.49
2022-10-18T01:45:22.798Z,77.41
2022-10-18T01:47:50.820Z,77.77
2022-10-18T01:50:28.660Z,77.56
2022-10-18T01:52:55.114Z,77.32
2022-10-18T01:56:13.901Z,77.22
2022-10-18T01:58:52.419Z,77.35
2022-10-18T02:01:29.526Z,77.50
2022-10-18T02:04:04.131Z,77.52
2022-10-18T02:06:37.220Z,77.43
2022-10-18T02:09:18.757Z,77.21
2022-10-18T02:11:51.206Z,77.03
2022-10-18T02:14:19.481Z,77.10
2022-10-18T02:16:51.658Z,76.96
2022-10-18T02:19:28.546Z,76.98
2022-10-18T02:21:58.033Z,76.96
2022-10-18T02:24:32.713Z,76.90
2022-10-18T02:26:59.225Z,77.04
2022-10-18T02:29:25.967Z,77.02
2022-10-18T02:32:03.303Z,77.19
2022-10-18T02:34:35.725Z,77.13
2022-10-18T02:37:03.055Z,77.12
2022-10-18T02:39:35.518Z,77.23
2022-10-18T02:42:06.762Z,77.40
2022-10-18T02:44:34.220Z,77.87
2022-10-18T02:47:01.347Z,77.82
2022-10-18T02:49:27.956Z,78.20
2022-10-18T02:51:54.376Z,78.23
2022-10-18T02:54:20.893Z,77.92
2022-10-18T02:56:47.346Z,78.15
2022-10-18T02:59:13.861Z,78.18
2022-10-18T03:01:40.384Z,78.25
2022-10-18T03:04:07.157Z,78.69
2022-10-18T03:06:34.214Z,78.78
2022-10-18T03:09:05.747Z,78.92
2022-10-18T03:11:32.398Z,78.80
2022-10-18T03:13:58.843Z,78.74
2022-10-18T03:16:25.370Z,79.41
2022-10-18T03:18:51.827Z,79.72
2022-10-18T03:21:18.459Z,79.95
2022-10-18T03:23:45.018Z,79.99
2022-10-18T03:26:11.507Z,80.31
2022-10-18T03:28:38.052Z,80.21
2022-10-18T03:31:04.987Z,80.71
2022-10-18T03:33:32.679Z,79.30
2022-10-18T03:35:59.251Z,79.02
2022-10-18T03:38:25.807Z,79.01
2022-10-18T03:40:52.243Z,78.24
2022-10-18T03:43:18.816Z,78.10
2022-10-18T03:45:45.321Z,78.35
2022-10-18T03:48:11.821Z,78.02
2022-10-18T03:50:38.411Z,78.52
2022-10-18T03:53:04.963Z,78.59
2022-10-18T03:55:31.430Z,79.27
2022-10-18T03:57:57.966Z,79.15
2022-10-18T04:00:24.477Z,79.92
2022-10-18T04:02:53.444Z,79.79
2022-10-18T04:05:23.998Z,79.16
2022-10-18T04:07:50.815Z,79.44
2022-10-18T04:10:18.604Z,79.35
2022-10-18T04:12:45.129Z,77.99
2022-10-18T04:15:11.730Z,78.14
2022-10-18T04:17:38.200Z,78.18
2022-10-18T04:20:05.186Z,77.84
2022-10-18T04:22:31.645Z,77.74
2022-10-18T04:24:58.365Z,77.44
2022-10-18T04:27:24.962Z,77.39
2022-10-18T04:29:51.372Z,77.51
2022-10-18T04:32:17.798Z,77.32
2022-10-18T04:34:44.236Z,77.21
2022-10-18T04:37:10.745Z,77.23
2022-10-18T04:39:37.181Z,77.39
2022-10-18T04:42:03.685Z,77.48
2022-10-18T04:44:30.155Z,77.75
2022-10-18T04:46:56.590Z,79.89
2022-10-18T04:49:23.143Z,80.86
2022-10-18T04:51:49.572Z,80.76
2022-10-18T04:54:16.089Z,80.72
2022-10-18T04:56:42.560Z,78.65
2022-10-18T04:59:08.988Z,77.37
2022-10-18T05:01:35.474Z,77.53
2022-10-18T05:04:01.969Z,78.09
2022-10-18T05:06:28.475Z,78.04
2022-10-18T05:08:54.969Z,77.44
2022-10-18T05:11:21.466Z,76.75
2022-10-18T05:13:50.161Z,77.27
2022-10-18T05:16:17.664Z,77.51
2022-10-18T05:18:44.171Z,77.82
2022-10-18T05:21:10.853Z,77.64
2022-10-18T05:23:37.317Z,77.91
2022-10-18T05:26:08.091Z,78.15
2022-10-18T05:28:40.166Z,79.25
2022-10-18T05:31:09.910Z,80.10
2022-10-18T05:33:36.763Z,80.00
2022-10-18T05:36:03.941Z,80.72
2022-10-18T05:38:31.055Z,80.04
2022-10-18T05:40:58.343Z,83.21
2022-10-18T05:43:28.888Z,81.58
2022-10-18T05:45:55.705Z,81.03
2022-10-18T05:48:22.209Z,82.41
2022-10-18T05:50:48.646Z,82.81
2022-10-18T05:53:35.168Z,80.78
2022-10-18T05:56:02.711Z,79.61
2022-10-18T05:58:29.340Z,79.69
2022-10-18T06:01:01.539Z,80.34
2022-10-18T06:03:28.350Z,79.54
2022-10-18T06:06:09.362Z,79.25
2022-10-18T06:08:37.424Z,78.98
2022-10-18T06:11:07.509Z,78.73
2022-10-18T06:13:34.281Z,78.01
2022-10-18T06:16:00.768Z,77.08
2022-10-18T06:18:27.259Z,76.85
2022-10-18T06:20:58.916Z,76.40
2022-10-18T06:23:27.385Z,76.15
2022-10-18T06:25:57.837Z,76.27
2022-10-18T06:28:24.302Z,76.23
2022-10-18T06:30:50.773Z,76.46
2022-10-18T06:33:17.205Z,76.02
2022-10-18T06:35:43.624Z,75.24
2022-10-18T06:38:10.070Z,74.79
2022-10-18T06:40:38.157Z,74.50
2022-10-18T06:43:19.958Z,74.22
2022-10-18T06:45:48.218Z,73.97
2022-10-18T06:48:14.777Z,73.76
2022-10-18T06:50:41.350Z,73.84
2022-10-18T06:53:09.049Z,73.47
2022-10-18T06:55:35.885Z,73.04
2022-10-18T06:58:02.348Z,73.02
2022-10-18T07:00:28.813Z,73.11
2022-10-18T07:02:57.171Z,72.76
2022-10-18T07:05:23.890Z,72.64
2022-10-18T07:07:54.201Z,72.56
2022-10-18T07:10:23.659Z,72.36
2022-10-18T07:12:51.599Z,72.01
2022-10-18T07:15:22.522Z,71.36
2022-10-18T07:17:49.427Z,71.24
2022-10-18T07:20:16.745Z,70.83
2022-10-18T07:22:43.188Z,71.29
2022-10-18T07:25:10.267Z,70.78
2022-10-18T07:27:41.239Z,70.33
2022-10-18T07:30:09.687Z,70.14
2022-10-18T07:32:36.638Z,70.04
2022-10-18T07:35:04.437Z,69.81
2022-10-18T07:37:31.258Z,69.24
2022-10-18T07:39:57.948Z,69.32
2022-10-18T07:42:24.947Z,69.18
2022-10-18T07:44:51.415Z,68.87
2022-10-18T07:47:18.137Z,68.54
2022-10-18T07:49:44.629Z,68.35
2022-10-18T07:52:11.472Z,68.47
2022-10-18T07:54:38.006Z,68.64
2022-10-18T07:57:05.071Z,68.84
2022-10-18T07:59:31.551Z,68.65
2022-10-18T08:01:58.099Z,68.79
2022-10-18T08:04:24.594Z,69.01
2022-10-18T08:06:51.079Z,69.12
2022-10-18T08:09:17.526Z,68.73
2022-10-18T08:11:44.040Z,68.97
2022-10-18T08:14:10.509Z,67.98
2022-10-18T08:16:36.937Z,68.27
2022-10-18T08:19:04.231Z,67.58
2022-10-18T08:21:30.662Z,67.37
2022-10-18T08:23:57.113Z,66.29
2022-10-18T08:26:23.756Z,66.25
2022-10-18T08:28:58.332Z,65.62
2022-10-18T08:31:30.455Z,65.43
2022-10-18T08:33:57.292Z,65.39
2022-10-18T08:36:24.335Z,65.60
2022-10-18T08:38:50.878Z,63.78
2022-10-18T08:41:17.258Z,64.61
2022-10-18T08:44:07.601Z,64.07
2022-10-18T08:46:37.015Z,64.29
2022-10-18T08:49:05.388Z,64.31
2022-10-18T08:51:42.924Z,64.25
2022-10-18T08:54:15.666Z,64.72
2022-10-18T08:56:49.343Z,63.70
2022-10-18T08:59:15.906Z,63.76
2022-10-18T09:02:19.622Z,63.66
2022-10-18T09:04:46.024Z,63.39
2022-10-18T09:07:37.247Z,63.01
2022-10-18T09:10:26.047Z,62.90
2022-10-18T09:13:29.982Z,63.12
2022-10-18T09:16:10.901Z,63.51
2022-10-18T09:18:58.411Z,62.15
2022-10-18T09:21:46.348Z,62.90
2022-10-18T09:24:18.156Z,62.91
2022-10-18T09:26:47.192Z,62.50
2022-10-18T09:29:47.631Z,63.12
2022-10-18T09:32:38.430Z,63.24
2022-10-18T09:35:16.761Z,63.61
2022-10-18T09:37:44.646Z,63.87
2022-10-18T09:40:27.946Z,63.79
2022-10-18T09:43:00.496Z,63.91
2022-10-18T09:45:32.586Z,64.16
2022-10-18T09:48:03.460Z,63.67
2022-10-18T09:50:37.842Z,62.95
2022-10-18T09:53:12.161Z,62.92
2022-10-18T09:55:52.535Z,62.92
2022-10-18T09:58:20.842Z,61.90
2022-10-18T10:00:52.641Z,61.98
2022-10-18T10:03:19.444Z,61.60
2022-10-18T10:05:46.158Z,61.60
2022-10-18T10:08:12.636Z,61.34
2022-10-18T10:10:42.659Z,61.44
2022-10-18T10:13:22.090Z,60.86
2022-10-18T10:16:03.002Z,60.12
2022-10-18T10:18:32.199Z,61.04
2022-10-18T10:21:00.873Z,58.88
2022-10-18T10:23:37.684Z,59.60
2022-10-18T10:26:20.280Z,59.69
2022-10-18T10:28:48.851Z,58.73
2022-10-18T10:31:24.547Z,58.57
2022-10-18T10:34:06.669Z,59.01
2022-10-18T10:36:34.192Z,59.08
2022-10-18T10:39:11.812Z,58.90
2022-10-18T10:41:40.541Z,56.32
2022-10-18T10:44:15.698Z,58.07
2022-10-18T10:46:42.230Z,57.31
2022-10-18T10:49:40.172Z,56.08
2022-10-18T10:52:26.777Z,56.37
2022-10-18T10:55:05.820Z,54.59
2022-10-18T10:57:32.734Z,56.09
2022-10-18T10:59:59.978Z,56.84
2022-10-18T11:02:32.272Z,57.03
2022-10-18T11:05:45.320Z,57.94
2022-10-18T11:08:16.920Z,57.25
2022-10-18T11:11:23.168Z,57.00
2022-10-18T11:14:13.635Z,56.75
2022-10-18T11:16:54.960Z,56.35
2022-10-18T11:19:37.097Z,56.20
2022-10-18T11:22:07.100Z,55.99
2022-10-18T11:24:35.914Z,56.17
2022-10-18T11:27:14.651Z,55.42
2022-10-18T11:29:58.416Z,54.71
2022-10-18T11:32:39.669Z,55.20
2022-10-18T11:35:27.905Z,53.32
2022-10-18T11:38:12.156Z,53.69
2022-10-18T11:40:57.278Z,54.60
2022-10-18T11:44:03.937Z,53.96
2022-10-18T11:46:57.649Z,52.34
2022-10-18T11:49:54.394Z,52.79
2022-10-18T11:52:20.735Z,52.64
2022-10-18T11:54:50.493Z,52.77
2022-10-18T11:57:41.739Z,52.45
2022-10-18T12:00:34.294Z,52.23
2022-10-18T12:03:14.015Z,52.75
2022-10-18T12:05:44.450Z,51.76
2022-10-18T12:08:16.087Z,51.48
2022-10-18T12:11:06.572Z,50.92
2022-10-18T12:13:40.009Z,49.75
2022-10-18T12:16:08.527Z,50.73
2022-10-18T12:18:43.135Z,49.01
2022-10-18T12:21:12.987Z,50.05
2022-10-18T12:23:49.472Z,48.73
2022-10-18T12:26:17.050Z,48.56
2022-10-18T12:29:18.511Z,48.81
2022-10-18T12:32:05.915Z,47.86
2022-10-18T12:34:38.581Z,48.69
2022-10-18T12:37:13.323Z,47.76
2022-10-18T12:40:05.491Z,47.64
2022-10-18T12:42:33.939Z,47.08
2022-10-18T12:45:21.179Z,47.11
2022-10-18T12:47:47.725Z,47.99
2022-10-18T12:50:42.522Z,48.07
2022-10-18T12:53:12.308Z,48.35
2022-10-18T12:55:45.522Z,47.51
2022-10-18T12:58:14.769Z,47.71
2022-10-18T13:00:44.147Z,47.68
2022-10-18T13:03:13.606Z,46.92
2022-10-18T13:06:02.976Z,46.73
2022-10-18T13:08:34.069Z,46.31
2022-10-18T13:11:12.513Z,46.75
2022-10-18T13:14:00.175Z,47.27
2022-10-18T13:16:52.880Z,46.28
2022-10-18T13:19:37.726Z,45.66
2022-10-18T13:22:35.231Z,44.70
2022-10-18T13:25:17.015Z,43.88
2022-10-18T13:27:58.395Z,43.93
2022-10-18T13:30:45.730Z,43.61
2022-10-18T13:33:34.684Z,45.60
2022-10-18T13:36:04.123Z,44.53
2022-10-18T13:38:36.541Z,44.30
2022-10-18T13:41:14.777Z,43.67
2022-10-18T13:43:52.208Z,42.99
2022-10-18T13:46:45.672Z,42.95
2022-10-18T13:49:40.189Z,43.34
2022-10-18T13:52:25.742Z,43.40
2022-10-18T13:55:17.015Z,42.54
2022-10-18T13:57:55.639Z,41.07
2022-10-18T14:00:48.973Z,36.73
2022-10-18T14:06:36.132Z,35.16
2022-10-18T14:09:25.404Z,37.93
2022-10-18T14:12:12.299Z,39.68
2022-10-18T14:15:03.796Z,39.98
2022-10-18T14:17:36.328Z,36.59
2022-10-18T14:20:16.828Z,35.41
2022-10-18T14:22:49.716Z,35.19
2022-10-18T14:25:36.976Z,31.13
2022-10-18T14:28:12.595Z,32.03
2022-10-18T14:30:59.547Z,36.05
2022-10-18T14:33:44.780Z,37.68
2022-10-18T14:36:21.877Z,40.27
2022-10-18T14:39:01.972Z,41.58
2022-10-18T14:41:47.295Z,39.19
2022-10-18T14:44:18.478Z,38.24
2022-10-18T14:46:49.442Z,40.27
2022-10-18T14:49:18.249Z,41.18
2022-10-18T14:51:48.928Z,40.72
2022-10-18T14:54:19.191Z,40.53
2022-10-18T14:56:46.108Z,42.69
2022-10-18T14:59:18.546Z,42.73
2022-10-18T15:02:05.140Z,42.29
2022-10-18T15:04:34.570Z,43.54
2022-10-18T15:07:06.194Z,43.00
2022-10-18T15:09:35.103Z,43.41
2022-10-18T15:12:06.509Z,42.78
2022-10-18T15:14:35.482Z,42.94
2022-10-18T15:17:14.553Z,42.77
2022-10-18T15:19:54.078Z,43.78
2022-10-18T15:22:31.686Z,44.55
2022-10-18T15:25:21.063Z,44.48
2022-10-18T15:27:50.097Z,44.64
2022-10-18T15:30:24.809Z,44.85
2022-10-18T15:32:59.874Z,45.51
2022-10-18T15:35:35.104Z,46.26
2022-10-18T15:38:14.393Z,45.85
2022-10-18T15:40:42.066Z,46.59
2022-10-18T15:43:23.625Z,47.21
2022-10-18T15:46:01.793Z,48.48
2022-10-18T15:48:38.589Z,48.78
2022-10-18T15:51:26.689Z,49.40
2022-10-18T15:53:54.334Z,50.32
2022-10-18T15:56:34.010Z,51.68
2022-10-18T15:59:04.102Z,52.07
2022-10-18T16:01:38.333Z,52.16
2022-10-18T16:04:12.098Z,52.18
2022-10-18T16:06:38.677Z,52.49
2022-10-18T16:09:05.647Z,53.22
2022-10-18T16:11:32.363Z,53.69
2022-10-18T16:14:00.433Z,53.84
2022-10-18T16:16:29.167Z,54.18
2022-10-18T16:18:56.370Z,54.75
2022-10-18T16:21:30.102Z,55.28
2022-10-18T16:23:56.734Z,55.79
2022-10-18T16:26:24.677Z,56.81
2022-10-18T16:28:51.836Z,56.99
2022-10-18T16:31:21.307Z,57.60
2022-10-18T16:33:48.661Z,58.61
2022-10-18T16:36:23.950Z,58.48
2022-10-18T16:38:51.385Z,58.74
2022-10-18T16:41:18.200Z,58.73
2022-10-18T16:43:46.265Z,59.01
2022-10-18T16:46:24.811Z,59.27
2022-10-18T16:48:51.750Z,60.35
2022-10-18T16:51:18.336Z,60.27
2022-10-18T16:53:45.482Z,60.16
2022-10-18T16:56:18.210Z,60.33
2022-10-18T16:58:45.328Z,61.01
2022-10-18T17:01:13.786Z,61.34
2022-10-18T17:03:40.494Z,61.75
2022-10-18T17:06:18.715Z,62.53
2022-10-18T17:08:45.653Z,62.63
2022-10-18T17:11:14.190Z,62.62
2022-10-18T17:13:40.749Z,62.90
2022-10-18T17:16:13.281Z,63.39
2022-10-18T17:18:39.742Z,64.03
2022-10-18T17:21:06.189Z,64.23
2022-10-18T17:23:34.061Z,64.93
2022-10-18T17:26:07.173Z,65.62
2022-10-18T17:28:41.737Z,65.31
2022-10-18T17:31:08.229Z,65.32
2022-10-18T17:33:34.812Z,65.74
2022-10-18T17:36:01.272Z,65.22
2022-10-18T17:38:27.819Z,65.51
2022-10-18T17:40:54.489Z,65.41
2022-10-18T17:43:20.976Z,65.14
2022-10-18T17:45:54.293Z,65.53
2022-10-18T17:48:21.972Z,65.73
2022-10-18T17:50:48.722Z,66.47
2022-10-18T17:53:16.557Z,67.28
2022-10-18T17:55:43.008Z,68.63
2022-10-18T17:58:10.099Z,69.20
2022-10-18T18:00:36.544Z,69.47
2022-10-18T18:03:03.157Z,69.29
2022-10-18T18:05:31.466Z,68.67
2022-10-18T18:08:02.707Z,67.80
2022-10-18T18:10:32.988Z,67.35
2022-10-18T18:12:59.662Z,66.94
2022-10-18T18:15:26.135Z,66.61
2022-10-18T18:17:57.196Z,67.25
2022-10-18T18:20:24.487Z,67.71
2022-10-18T18:22:51.456Z,67.93
2022-10-18T18:25:17.986Z,67.48
2022-10-18T18:27:44.523Z,67.98
2022-10-18T18:30:11.445Z,67.96
2022-10-18T18:32:39.603Z,67.93
2022-10-18T18:35:06.372Z,67.93
2022-10-18T18:37:32.801Z,68.18
2022-10-18T18:39:59.251Z,68.81
2022-10-18T18:42:25.791Z,69.37
2022-10-18T18:44:52.254Z,70.06
2022-10-18T18:47:21.621Z,71.05
2022-10-18T18:49:48.837Z,70.69
2022-10-18T18:52:15.433Z,70.90
2022-10-18T18:54:41.877Z,70.40
2022-10-18T18:57:08.355Z,70.49
2022-10-18T18:59:34.779Z,71.00
2022-10-18T19:02:01.233Z,71.52
2022-10-18T19:04:28.990Z,71.72
2022-10-18T19:06:55.771Z,71.88
2022-10-18T19:09:22.922Z,71.64
2022-10-18T19:11:52.319Z,71.92
2022-10-18T19:14:19.607Z,72.36
2022-10-18T19:16:47.435Z,72.80
2022-10-18T19:19:19.624Z,73.55
2022-10-18T19:21:49.413Z,73.51
2022-10-18T19:24:15.958Z,73.47
2022-10-18T19:26:47.510Z,72.51
2022-10-18T19:29:23.203Z,71.34
2022-10-18T19:31:56.008Z,70.87
2022-10-18T19:34:24.345Z,71.17
2022-10-18T19:36:51.831Z,71.95
2022-10-18T19:39:23.264Z,71.15
2022-10-18T19:41:53.065Z,71.09
2022-10-18T19:44:19.984Z,70.94
2022-10-18T19:46:47.039Z,70.97
2022-10-18T19:49:14.001Z,71.70
2022-10-18T19:51:41.011Z,70.77
2022-10-18T19:54:07.586Z,71.39
2022-10-18T19:56:34.105Z,72.41
2022-10-18T19:59:00.685Z,73.36
2022-10-18T20:01:28.577Z,72.71
2022-10-18T20:03:55.645Z,73.10
2022-10-18T20:06:22.260Z,73.30
2022-10-18T20:08:48.937Z,72.94
2022-10-18T20:11:21.310Z,72.47
2022-10-18T20:13:47.818Z,73.28
2022-10-18T20:16:16.545Z,73.15
2022-10-18T20:18:45.819Z,73.07
2022-10-18T20:21:15.408Z,73.12
2022-10-18T20:23:43.571Z,73.23
2022-10-18T20:26:18.287Z,73.31
2022-10-18T20:28:56.879Z,73.66
2022-10-18T20:31:31.713Z,73.60
2022-10-18T20:34:00.963Z,73.24
2022-10-18T20:36:29.228Z,73.02
2022-10-18T20:38:56.475Z,72.83
2022-10-18T20:41:28.168Z,73.36
2022-10-18T20:44:00.698Z,73.99
2022-10-18T20:46:30.429Z,74.04
2022-10-18T20:48:57.039Z,73.94
2022-10-18T20:51:24.232Z,73.89
2022-10-18T20:53:51.518Z,74.09
2022-10-18T20:56:21.141Z,73.87
2022-10-18T20:58:53.237Z,74.19
2022-10-18T21:01:23.648Z,74.07
2022-10-18T21:03:52.014Z,74.27
2022-10-18T21:06:23.136Z,74.40
2022-10-18T21:08:58.001Z,74.10
2022-10-18T21:11:25.574Z,73.79
2022-10-18T21:13:58.853Z,73.63
2022-10-18T21:16:26.334Z,73.67
2022-10-18T21:18:52.858Z,73.46
2022-10-18T21:21:24.469Z,73.77
2022-10-18T21:23:51.922Z,73.66
2022-10-18T21:26:23.975Z,73.95
2022-10-18T21:28:52.505Z,73.99
2022-10-18T21:31:21.410Z,74.53
2022-10-18T21:33:53.492Z,74.99
2022-10-18T21:36:20.090Z,75.43
2022-10-18T21:38:46.906Z,75.87
2022-10-18T21:41:15.970Z,75.78
2022-10-18T21:43:45.439Z,76.03
2022-10-18T21:46:13.474Z,76.26
2022-10-18T21:48:43.939Z,76.24
2022-10-18T21:51:10.919Z,76.01
2022-10-18T21:53:37.393Z,75.93
2022-10-18T21:56:08.947Z,75.95
2022-10-18T21:58:36.725Z,75.40
2022-10-18T22:01:15.363Z,74.48
2022-10-18T22:03:43.084Z,75.01
2022-10-18T22:06:16.363Z,75.01
2022-10-18T22:08:47.465Z,75.29
2022-10-18T22:11:14.319Z,75.57
2022-10-18T22:13:41.542Z,75.10
2022-10-18T22:16:09.709Z,74.60
2022-10-18T22:18:36.590Z,75.05
2022-10-18T22:21:06.226Z,75.11
2022-10-18T22:23:41.740Z,75.00
2022-10-18T22:26:18.922Z,75.47
2022-10-18T22:28:46.333Z,75.81
2022-10-18T22:31:24.771Z,75.84
2022-10-18T22:33:56.609Z,75.97
2022-10-18T22:36:24.735Z,75.93
2022-10-18T22:38:51.378Z,76.06
2022-10-18T22:41:17.905Z,77.00
2022-10-18T22:43:45.171Z,77.38
2022-10-18T22:46:13.653Z,77.13
2022-10-18T22:48:41.058Z,76.88
2022-10-18T22:51:08.710Z,77.20
2022-10-18T22:53:36.031Z,76.60
2022-10-18T22:56:03.219Z,76.98
2022-10-18T22:58:30.015Z,76.85
2022-10-18T23:01:07.613Z,77.27
2022-10-18T23:03:34.266Z,78.07
2022-10-18T23:06:01.018Z,77.23
2022-10-18T23:08:27.929Z,77.00
2022-10-18T23:10:57.402Z,77.28
2022-10-18T23:13:25.523Z,79.10
2022-10-18T23:15:52.823Z,78.66
2022-10-18T23:18:19.633Z,78.49
2022-10-18T23:20:46.140Z,78.55
2022-10-18T23:23:12.932Z,79.23
2022-10-18T23:25:40.224Z,79.95
2022-10-18T23:28:06.862Z,80.11
2022-10-18T23:30:33.831Z,80.32
2022-10-18T23:33:00.334Z,80.76
2022-10-18T23:35:29.249Z,80.36
2022-10-18T23:37:55.712Z,80.89
2022-10-18T23:40:22.127Z,80.84
2022-10-18T23:42:48.620Z,81.44
2022-10-18T23:45:15.147Z,81.66
2022-10-18T23:47:41.573Z,81.61
2022-10-18T23:50:08.419Z,82.39
2022-10-18T23:52:34.849Z,83.04
2022-10-18T23:55:01.262Z,83.32
2022-10-18T23:57:27.784Z,83.68
2022-10-18T23:59:54.197Z,83.50
